Time;durP1;ratioP1;P1;durP2;ratioP2;P2;SDS_P1;SDS_P2;PMS_P1;PMS_P2;Temp;Humidity;BMP_temperature;BMP_pressure;BME280_temperature;BME280_humidity;BME280_pressure;Samples;Min_cycle;Max_cycle;Signal;HPM_P1;HPM_P2
2024/03/17 00:01:12;;;;;;;6.40;2.60;;;4.50;1.00;;;;;;5101860;28;20300;-81
2024/03/17 00:03:38;;;;;;;10.17;2.67;;;4.60;1.00;;;;;;5108531;28;20254;-80
2024/03/17 00:06:08;;;;;;;5.27;2.43;;;4.60;1.00;;;;;;5099655;28;20940;-81
2024/03/17 00:08:34;;;;;;;4.87;2.30;;;4.50;1.00;;;;;;5100341;28;20201;-81
2024/03/17 00:11:01;;;;;;;8.17;3.13;;;4.50;1.00;;;;;;5098912;28;20235;-80
2024/03/17 00:13:27;;;;;;;10.60;3.90;;;4.50;1.00;;;;;;5097901;28;20193;-80
2024/03/17 00:15:54;;;;;;;8.10;2.60;;;4.50;1.00;;;;;;5103258;28;20445;-81
2024/03/17 00:18:19;;;;;;;8.50;2.80;;;4.40;1.00;;;;;;5100730;28;20204;-81
2024/03/17 00:20:46;;;;;;;7.57;2.30;;;4.40;1.00;;;;;;5098686;28;20315;-81
2024/03/17 00:23:14;;;;;;;7.40;2.40;;;4.30;1.00;;;;;;5099762;28;20201;-80
2024/03/17 00:25:41;;;;;;;9.97;3.23;;;4.20;1.00;;;;;;5102969;28;20598;-81
2024/03/17 00:28:07;;;;;;;6.00;2.60;;;4.20;1.00;;;;;;5105425;28;20644;-81
2024/03/17 00:30:34;;;;;;;8.87;2.70;;;4.10;1.00;;;;;;5107787;28;20213;-81
2024/03/17 00:33:00;;;;;;;7.17;2.50;;;4.20;1.00;;;;;;5112369;28;20239;-81
2024/03/17 00:35:27;;;;;;;7.10;2.63;;;4.10;1.00;;;;;;5100826;28;20197;-81
2024/03/17 00:37:53;;;;;;;7.40;2.33;;;4.10;1.00;;;;;;5104099;28;20256;-81
2024/03/17 00:40:22;;;;;;;9.40;2.73;;;4.10;1.00;;;;;;5107548;28;20644;-81
2024/03/17 00:42:47;;;;;;;6.00;2.57;;;4.00;91.90;;;;;;5110873;28;20252;-81
2024/03/17 00:45:16;;;;;;;10.03;2.93;;;4.00;99.90;;;;;;5112146;28;20205;-81
2024/03/17 00:47:42;;;;;;;7.27;3.00;;;4.00;99.90;;;;;;5105393;28;20251;-81
2024/03/17 00:50:11;;;;;;;8.63;2.80;;;4.00;99.90;;;;;;5107021;28;20217;-81
2024/03/17 00:52:37;;;;;;;7.50;2.60;;;4.00;99.90;;;;;;5103652;28;20213;-81
2024/03/17 00:55:05;;;;;;;8.07;3.47;;;3.80;99.90;;;;;;5105524;28;20226;-81
2024/03/17 00:57:33;;;;;;;6.53;3.30;;;3.80;1.00;;;;;;5105953;28;20201;-81
2024/03/17 00:59:59;;;;;;;5.03;3.30;;;3.80;1.00;;;;;;5106930;28;20259;-81
2024/03/17 01:02:25;;;;;;;7.83;3.70;;;3.90;1.00;;;;;;5113219;28;20243;-81
2024/03/17 01:04:52;;;;;;;7.00;3.70;;;3.70;1.00;;;;;;5107649;28;20576;-81
2024/03/17 01:07:18;;;;;;;12.33;5.33;;;3.60;1.00;;;;;;5100600;28;20265;-81
2024/03/17 01:09:48;;;;;;;8.40;4.17;;;3.60;43.80;;;;;;5109890;28;20675;-81
2024/03/17 01:12:14;;;;;;;8.30;4.13;;;3.70;99.90;;;;;;5108112;28;20245;-81
2024/03/17 01:14:42;;;;;;;11.93;4.07;;;3.80;99.90;;;;;;5104542;28;20209;-81
2024/03/17 01:17:08;;;;;;;8.70;3.90;;;3.80;1.00;;;;;;5104431;28;20251;-81
2024/03/17 01:19:36;;;;;;;9.47;4.03;;;3.80;1.00;;;;;;5105877;28;20198;-81
2024/03/17 01:22:02;;;;;;;8.33;4.20;;;3.90;1.00;;;;;;5108483;28;20268;-81
2024/03/17 01:24:31;;;;;;;8.30;4.70;;;3.90;99.90;;;;;;5114876;28;20190;-81
2024/03/17 01:26:57;;;;;;;7.70;4.00;;;3.90;99.90;;;;;;5104294;28;20229;-81
2024/03/17 01:29:24;;;;;;;9.47;4.63;;;4.00;99.90;;;;;;5104750;28;20240;-81
2024/03/17 01:31:52;;;;;;;12.30;4.60;;;3.90;99.90;;;;;;5110219;28;20232;-81
2024/03/17 01:34:19;;;;;;;8.40;4.00;;;3.80;33.10;;;;;;5109895;28;20262;-81
2024/03/17 01:36:45;;;;;;;9.23;4.33;;;3.90;99.90;;;;;;5104215;28;20269;-82
2024/03/17 01:39:12;;;;;;;6.77;3.80;;;3.80;99.90;;;;;;5113814;28;20689;-82
2024/03/17 01:41:39;;;;;;;8.57;4.20;;;3.60;99.90;;;;;;5112728;28;20248;-81
2024/03/17 01:44:06;;;;;;;6.30;3.43;;;3.60;99.90;;;;;;5111482;28;20635;-82
2024/03/17 01:46:33;;;;;;;8.97;3.87;;;3.70;99.90;;;;;;5111591;28;20208;-81
2024/03/17 01:49:04;;;;;;;6.70;3.53;;;3.70;1.00;;;;;;5106427;28;20621;-81
2024/03/17 01:51:30;;;;;;;8.87;4.13;;;3.50;99.90;;;;;;5111299;28;20220;-81
2024/03/17 01:53:57;;;;;;;6.97;4.10;;;3.40;1.00;;;;;;5108966;28;20194;-81
2024/03/17 01:56:23;;;;;;;9.67;3.93;;;3.50;1.00;;;;;;5107439;28;20209;-81
2024/03/17 01:58:51;;;;;;;6.67;3.27;;;3.40;1.00;;;;;;5108781;28;20197;-81
2024/03/17 02:01:17;;;;;;;7.60;3.77;;;3.50;1.00;;;;;;5113538;28;20268;-82
2024/03/17 02:03:44;;;;;;;7.60;3.90;;;3.40;1.00;;;;;;5110521;28;20564;-81
2024/03/17 02:06:11;;;;;;;7.63;3.70;;;3.40;1.00;;;;;;5111326;28;20198;-81
2024/03/17 02:08:48;;;;;;;10.20;4.00;;;3.40;31.10;;;;;;5108888;28;20193;-81
2024/03/17 02:11:25;;;;;;;12.10;4.00;;;3.40;5.40;;;;;;5105109;28;20736;-81
2024/03/17 02:13:53;;;;;;;9.13;4.17;;;3.30;3.70;;;;;;5103486;28;20250;-81
2024/03/17 02:16:19;;;;;;;9.67;3.50;;;3.40;99.90;;;;;;5104576;28;20217;-81
2024/03/17 02:18:47;;;;;;;11.37;3.93;;;3.40;99.90;;;;;;5107313;28;20210;-82
2024/03/17 02:21:15;;;;;;;7.33;3.70;;;3.30;54.70;;;;;;5113261;28;20245;-81
2024/03/17 02:23:43;;;;;;;10.83;3.77;;;3.30;99.90;;;;;;5111760;28;20262;-81
2024/03/17 02:26:10;;;;;;;6.27;4.67;;;3.50;1.00;;;;;;5107846;28;20197;-81
2024/03/17 02:28:41;;;;;;;6.90;3.50;;;3.40;99.90;;;;;;5112506;28;20220;-82
2024/03/17 02:31:09;;;;;;;7.73;4.00;;;3.40;99.90;;;;;;5111249;28;20221;-82
2024/03/17 02:33:35;;;;;;;9.80;3.60;;;3.50;1.00;;;;;;5104884;28;20197;-82
2024/03/17 02:36:03;;;;;;;8.03;3.70;;;3.40;99.90;;;;;;5102013;28;20225;-82
2024/03/17 02:41:18;;;;;;;8.60;4.33;;;3.40;99.90;;;;;;5114540;28;20245;-81
2024/03/17 02:43:45;;;;;;;7.37;3.57;;;3.40;99.90;;;;;;5108982;28;20807;-81
2024/03/17 02:46:12;;;;;;;9.33;4.00;;;3.40;99.90;;;;;;5112015;28;20221;-81
2024/03/17 02:48:44;;;;;;;6.93;4.13;;;3.40;99.90;;;;;;5109622;28;20285;-81
2024/03/17 02:51:12;;;;;;;9.97;4.03;;;3.50;94.10;;;;;;5115211;28;20216;-82
2024/03/17 02:53:40;;;;;;;8.57;4.10;;;3.50;1.00;;;;;;5111784;28;20624;-81
2024/03/17 02:56:07;;;;;;;8.43;3.30;;;3.40;1.00;;;;;;5112480;28;20212;-82
2024/03/17 02:58:37;;;;;;;9.80;3.87;;;3.40;1.00;;;;;;5112387;28;20673;-81
2024/03/17 03:01:04;;;;;;;8.67;3.83;;;3.30;1.00;;;;;;5111295;28;20266;-82
2024/03/17 03:03:31;;;;;;;5.87;3.40;;;3.20;1.00;;;;;;5107269;28;20197;-81
2024/03/17 03:06:00;;;;;;;10.40;3.60;;;3.10;1.00;;;;;;5109235;28;20204;-81
2024/03/17 03:08:27;;;;;;;5.77;3.30;;;3.00;1.00;;;;;;5105605;28;20194;-82
2024/03/17 03:10:54;;;;;;;5.53;3.50;;;3.00;1.00;;;;;;5105606;28;20286;-81
2024/03/17 03:13:21;;;;;;;10.07;3.60;;;3.10;99.90;;;;;;5111014;28;20235;-81
2024/03/17 03:15:50;;;;;;;10.63;3.67;;;3.10;99.90;;;;;;5110561;28;20239;-81
2024/03/17 03:18:17;;;;;;;10.63;3.37;;;3.00;1.00;;;;;;5106577;28;20896;-82
2024/03/17 03:20:44;;;;;;;9.50;3.73;;;2.90;63.50;;;;;;5105957;28;20221;-81
2024/03/17 03:23:11;;;;;;;7.17;3.80;;;2.90;1.00;;;;;;5107920;28;20205;-81
2024/03/17 03:25:38;;;;;;;6.17;3.73;;;2.80;1.00;;;;;;5109098;28;20205;-81
2024/03/17 03:28:05;;;;;;;8.03;3.50;;;2.70;99.90;;;;;;5104816;28;20239;-81
2024/03/17 03:30:36;;;;;;;10.40;4.37;;;2.80;99.90;;;;;;5106657;28;20221;-81
2024/03/17 03:33:05;;;;;;;6.87;3.40;;;2.70;99.90;;;;;;5112466;28;20197;-82
2024/03/17 03:35:32;;;;;;;6.17;3.63;;;2.40;1.00;;;;;;5103062;28;20221;-82
2024/03/17 03:38:00;;;;;;;8.07;3.17;;;2.40;99.90;;;;;;5107705;28;20712;-82
2024/03/17 03:40:27;;;;;;;12.33;3.97;;;2.50;1.00;;;;;;5109702;28;20232;-81
2024/03/17 03:42:54;;;;;;;8.80;4.43;;;2.50;1.00;;;;;;5109151;28;20236;-81
2024/03/17 03:45:21;;;;;;;8.03;4.40;;;2.50;1.00;;;;;;5110072;28;20647;-82
2024/03/17 03:47:48;;;;;;;7.57;3.37;;;2.50;1.00;;;;;;5111263;28;20228;-82
2024/03/17 03:50:20;;;;;;;9.23;3.70;;;2.60;1.00;;;;;;5109255;28;20243;-81
2024/03/17 03:52:47;;;;;;;7.80;3.50;;;2.40;1.00;;;;;;5112702;28;20220;-82
2024/03/17 03:55:19;;;;;;;6.90;3.53;;;2.40;1.00;;;;;;5113214;28;20209;-82
2024/03/17 03:57:47;;;;;;;5.40;3.50;;;2.40;59.10;;;;;;5108301;28;20683;-82
2024/03/17 04:00:15;;;;;;;5.80;3.50;;;2.50;99.90;;;;;;5110101;28;20284;-81
2024/03/17 04:02:43;;;;;;;8.30;3.27;;;2.50;87.50;;;;;;5108061;28;20246;-82
2024/03/17 04:05:10;;;;;;;5.83;3.10;;;2.30;1.00;;;;;;5108223;28;20225;-81
2024/03/17 04:07:38;;;;;;;5.63;3.00;;;2.10;1.00;;;;;;5109305;28;20201;-81
2024/03/17 04:10:05;;;;;;;8.13;3.20;;;1.90;1.00;;;;;;5103190;28;20661;-82
2024/03/17 04:12:32;;;;;;;10.10;3.33;;;2.00;99.90;;;;;;5110187;28;20213;-82
2024/03/17 04:15:00;;;;;;;8.07;3.80;;;2.00;99.90;;;;;;5107861;28;20193;-82
2024/03/17 04:17:27;;;;;;;5.63;3.67;;;2.20;1.00;;;;;;5103047;28;20201;-82
2024/03/17 04:19:55;;;;;;;9.97;3.97;;;2.20;99.90;;;;;;5101732;28;20255;-82
2024/03/17 04:22:22;;;;;;;6.90;3.33;;;2.10;99.90;;;;;;5108614;28;20688;-81
2024/03/17 04:24:54;;;;;;;6.80;3.87;;;2.10;99.90;;;;;;5103897;28;20197;-82
2024/03/17 04:27:21;;;;;;;8.50;3.80;;;2.30;99.90;;;;;;5108307;28;20537;-82
2024/03/17 04:29:48;;;;;;;7.63;4.00;;;2.40;99.90;;;;;;5108303;28;20554;-82
2024/03/17 04:32:15;;;;;;;6.23;3.80;;;2.40;1.00;;;;;;5107142;28;20289;-81
2024/03/17 04:34:44;;;;;;;8.53;3.80;;;2.50;1.00;;;;;;5101411;28;20247;-82
2024/03/17 04:37:12;;;;;;;10.07;4.20;;;2.30;99.90;;;;;;5108001;28;20264;-82
2024/03/17 04:39:39;;;;;;;7.50;3.70;;;2.20;99.90;;;;;;5102618;28;20206;-81
2024/03/17 04:42:07;;;;;;;6.30;3.70;;;2.20;99.90;;;;;;5107650;28;20423;-82
2024/03/17 04:44:34;;;;;;;7.97;3.47;;;2.30;99.90;;;;;;5105143;28;20592;-82
2024/03/17 04:47:02;;;;;;;7.07;3.03;;;2.20;99.90;;;;;;5107954;28;20225;-82
2024/03/17 04:49:29;;;;;;;9.17;3.87;;;2.30;1.00;;;;;;5110224;28;20208;-82
2024/03/17 04:51:56;;;;;;;8.37;3.50;;;2.20;99.90;;;;;;5112097;28;20267;-82
2024/03/17 04:54:23;;;;;;;8.13;3.43;;;2.40;99.90;;;;;;5115352;28;20252;-81
2024/03/17 04:56:49;;;;;;;8.53;3.37;;;2.30;1.00;;;;;;5106867;27;20235;-82
2024/03/17 04:59:18;;;;;;;9.50;4.13;;;2.40;1.00;;;;;;5116842;28;20253;-81
2024/03/17 05:01:45;;;;;;;10.00;3.53;;;2.50;1.00;;;;;;5112562;28;20648;-81
2024/03/17 05:04:11;;;;;;;10.80;3.40;;;2.60;1.00;;;;;;5111642;28;20198;-82
2024/03/17 05:06:38;;;;;;;6.77;3.60;;;2.50;1.00;;;;;;5112106;28;20205;-82
2024/03/17 05:09:05;;;;;;;8.40;3.43;;;2.60;1.00;;;;;;5109344;28;20300;-81
2024/03/17 05:11:33;;;;;;;9.27;3.73;;;2.80;1.00;;;;;;5115454;28;20217;-81
2024/03/17 05:14:00;;;;;;;5.53;3.23;;;2.50;1.00;;;;;;5099412;28;20194;-82
2024/03/17 05:16:29;;;;;;;5.70;3.40;;;2.60;1.00;;;;;;5107712;28;20224;-81
2024/03/17 05:18:56;;;;;;;9.13;3.80;;;2.70;1.00;;;;;;5103085;28;20198;-82
2024/03/17 05:21:25;;;;;;;7.70;3.40;;;2.80;1.00;;;;;;5109680;28;20772;-81
2024/03/17 05:23:53;;;;;;;10.27;5.03;;;3.00;1.00;;;;;;5115788;28;20201;-82
2024/03/17 05:26:19;;;;;;;5.77;3.63;;;3.00;1.00;;;;;;5109513;28;20220;-81
2024/03/17 05:28:46;;;;;;;7.17;3.83;;;3.00;1.00;;;;;;5108783;28;20700;-82
2024/03/17 05:31:17;;;;;;;8.37;4.00;;;3.00;1.00;;;;;;5111202;28;20627;-82
2024/03/17 05:33:45;;;;;;;7.77;3.70;;;3.00;99.90;;;;;;5107725;28;20231;-82
2024/03/17 05:36:12;;;;;;;6.00;3.60;;;3.00;99.90;;;;;;5106555;28;20267;-82
2024/03/17 05:38:39;;;;;;;8.90;3.87;;;3.00;99.90;;;;;;5108474;28;20206;-81
2024/03/17 05:41:08;;;;;;;7.37;3.90;;;3.00;1.00;;;;;;5113384;28;20248;-82
2024/03/17 05:43:37;;;;;;;10.17;4.90;;;2.90;1.00;;;;;;5110742;28;20197;-82
2024/03/17 05:46:06;;;;;;;10.23;4.20;;;3.10;1.00;;;;;;5107204;28;20217;-81
2024/03/17 05:48:33;;;;;;;9.20;4.67;;;3.10;1.00;;;;;;5106402;28;20284;-80
2024/03/17 05:51:03;;;;;;;9.13;4.63;;;3.00;1.00;;;;;;5104897;28;20229;-80
2024/03/17 05:53:31;;;;;;;8.80;4.70;;;3.00;1.00;;;;;;5108623;28;20457;-81
2024/03/17 05:55:59;;;;;;;10.47;4.00;;;3.00;1.00;;;;;;5102181;28;20447;-81
2024/03/17 05:58:27;;;;;;;6.30;4.10;;;3.10;1.00;;;;;;5100915;28;20251;-81
2024/03/17 06:00:54;;;;;;;10.73;4.40;;;3.30;99.00;;;;;;5107989;28;20304;-81
2024/03/17 06:03:21;;;;;;;7.57;3.93;;;3.40;41.20;;;;;;5103871;28;20659;-80
2024/03/17 06:05:49;;;;;;;10.33;4.53;;;3.40;6.00;;;;;;5105322;28;20201;-81
2024/03/17 06:08:17;;;;;;;11.23;5.17;;;3.50;52.30;;;;;;5108372;28;20249;-81
2024/03/17 06:10:46;;;;;;;13.37;4.60;;;3.60;1.00;;;;;;5111318;28;20252;-82
2024/03/17 06:13:14;;;;;;;10.20;4.03;;;3.60;1.00;;;;;;5106010;28;20737;-82
2024/03/17 06:15:42;;;;;;;10.73;4.70;;;3.70;1.00;;;;;;5103348;28;20216;-82
2024/03/17 06:18:11;;;;;;;10.43;4.57;;;3.70;1.00;;;;;;5105066;28;20288;-84
2024/03/17 06:20:41;;;;;;;10.20;4.53;;;3.80;1.00;;;;;;5100039;28;20198;-83
2024/03/17 06:23:08;;;;;;;11.93;4.20;;;3.80;1.00;;;;;;5099580;28;20198;-82
2024/03/17 06:25:41;;;;;;;10.80;5.10;;;3.90;1.00;;;;;;5107688;28;20216;-83
2024/03/17 06:28:08;;;;;;;9.07;4.60;;;3.90;1.00;;;;;;5102830;28;20781;-82
2024/03/17 06:30:35;;;;;;;9.17;4.50;;;4.00;1.00;;;;;;5109649;28;20216;-82
2024/03/17 06:33:03;;;;;;;6.80;4.37;;;4.10;1.00;;;;;;5105121;28;20222;-82
2024/03/17 06:35:30;;;;;;;8.37;4.40;;;4.00;1.00;;;;;;5110989;28;20254;-82
2024/03/17 06:38:01;;;;;;;11.10;5.03;;;4.00;1.00;;;;;;5105842;28;20640;-82
2024/03/17 06:40:29;;;;;;;9.27;5.30;;;4.20;1.00;;;;;;5102415;28;20253;-84
2024/03/17 06:42:57;;;;;;;13.53;5.37;;;4.30;1.00;;;;;;5104526;28;20206;-83
2024/03/17 06:45:24;;;;;;;12.57;5.00;;;4.40;1.00;;;;;;5101210;28;20574;-82
2024/03/17 06:47:51;;;;;;;11.07;4.93;;;4.30;1.00;;;;;;5096972;28;20210;-84
2024/03/17 06:50:18;;;;;;;9.17;4.60;;;4.30;1.00;;;;;;5110161;28;20258;-82
2024/03/17 06:52:45;;;;;;;10.90;4.73;;;4.40;1.00;;;;;;5105095;28;20275;-82
2024/03/17 06:55:12;;;;;;;6.87;4.27;;;4.40;1.00;;;;;;5111373;28;20212;-80
2024/03/17 06:57:43;;;;;;;7.53;4.47;;;4.50;1.00;;;;;;5105692;28;20205;-83
2024/03/17 07:00:14;;;;;;;11.50;4.47;;;4.50;1.00;;;;;;5107051;28;20276;-82
2024/03/17 07:02:43;;;;;;;9.57;4.53;;;4.50;1.00;;;;;;5103557;28;20222;-83
2024/03/17 07:05:15;;;;;;;9.93;4.57;;;4.50;1.00;;;;;;5110108;28;20226;-83
2024/03/17 07:07:42;;;;;;;12.30;4.87;;;4.50;1.00;;;;;;5103159;28;20229;-79
2024/03/17 07:10:11;;;;;;;10.83;4.80;;;4.30;1.00;;;;;;5107328;28;20683;-81
2024/03/17 07:12:38;;;;;;;11.37;5.80;;;4.40;1.00;;;;;;5101704;28;20288;-80
2024/03/17 07:15:06;;;;;;;13.10;5.77;;;4.60;91.20;;;;;;5101042;28;20223;-81
2024/03/17 07:17:34;;;;;;;9.30;4.80;;;4.70;1.00;;;;;;5097613;28;20201;-80
2024/03/17 07:20:01;;;;;;;12.03;5.40;;;4.90;1.00;;;;;;5101804;28;20233;-83
2024/03/17 07:22:29;;;;;;;14.97;5.77;;;5.10;1.00;;;;;;5109727;27;20230;-81
2024/03/17 07:25:01;;;;;;;12.57;5.87;;;5.20;1.00;;;;;;5103550;28;20240;-82
2024/03/17 07:27:28;;;;;;;9.53;5.43;;;5.10;1.00;;;;;;5104928;28;20241;-81
2024/03/17 07:29:55;;;;;;;10.87;5.00;;;5.40;1.00;;;;;;5112162;28;20207;-80
2024/03/17 07:32:23;;;;;;;10.03;5.13;;;5.60;1.00;;;;;;5105345;28;20308;-82
2024/03/17 07:34:51;;;;;;;9.50;6.00;;;5.60;1.00;;;;;;5102998;28;20209;-81
2024/03/17 07:37:18;;;;;;;11.33;6.40;;;5.60;1.00;;;;;;5104809;28;20209;-79
2024/03/17 07:39:49;;;;;;;12.40;6.40;;;5.50;1.00;;;;;;5107458;28;20266;-81
2024/03/17 07:42:16;;;;;;;16.53;7.13;;;5.50;1.00;;;;;;5109896;27;20304;-80
2024/03/17 07:44:45;;;;;;;16.63;8.00;;;7.30;1.00;;;;;;5109557;28;20256;-82
2024/03/17 07:47:12;;;;;;;15.27;6.87;;;8.70;99.90;;;;;;5107583;28;20236;-82
2024/03/17 07:49:39;;;;;;;12.73;6.47;;;9.20;1.00;;;;;;5104306;28;20213;-84
2024/03/17 07:52:06;;;;;;;11.90;6.67;;;9.30;99.90;;;;;;5106286;28;20270;-82
2024/03/17 07:54:35;;;;;;;10.77;5.83;;;9.60;99.90;;;;;;5104110;28;20197;-81
2024/03/17 07:57:02;;;;;;;11.10;5.70;;;9.10;1.00;;;;;;5108762;28;20288;-83
2024/03/17 07:59:29;;;;;;;9.33;5.73;;;8.00;1.00;;;;;;5106151;28;20282;-81
2024/03/17 08:01:57;;;;;;;10.13;5.97;;;8.60;1.00;;;;;;5105599;28;20695;-83
2024/03/17 08:04:24;;;;;;;12.30;5.73;;;8.40;1.00;;;;;;5108663;28;20280;-83
2024/03/17 08:06:51;;;;;;;10.10;5.80;;;8.90;1.00;;;;;;5110902;28;20204;-83
2024/03/17 08:09:19;;;;;;;12.47;5.87;;;8.50;1.00;;;;;;5112959;28;20217;-83
2024/03/17 08:11:47;;;;;;;10.30;5.20;;;9.80;99.90;;;;;;5112324;28;20293;-82
2024/03/17 08:14:15;;;;;;;8.83;5.10;;;9.70;1.00;;;;;;5104916;28;21273;-82
2024/03/17 08:16:42;;;;;;;11.97;5.70;;;11.80;1.00;;;;;;5102896;28;20288;-83
2024/03/17 08:19:09;;;;;;;12.23;4.80;;;12.30;1.00;;;;;;5103545;28;20202;-83
2024/03/17 08:21:36;;;;;;;11.47;5.57;;;11.70;99.90;;;;;;5106615;28;20227;-82
2024/03/17 08:24:04;;;;;;;9.57;4.80;;;10.10;1.00;;;;;;5105120;28;20209;-81
2024/03/17 08:26:32;;;;;;;11.00;4.47;;;9.90;1.00;;;;;;5109970;28;20202;-82
2024/03/17 08:28:59;;;;;;;10.03;4.20;;;10.70;1.00;;;;;;5105813;28;20621;-82
2024/03/17 08:31:26;;;;;;;11.87;4.30;;;10.40;1.00;;;;;;5103341;28;20233;-80
2024/03/17 08:33:53;;;;;;;10.50;4.40;;;9.20;1.00;;;;;;5105648;28;20221;-83
2024/03/17 08:36:21;;;;;;;11.97;4.67;;;9.20;1.00;;;;;;5110612;28;20663;-83
2024/03/17 08:38:48;;;;;;;9.60;4.40;;;9.40;99.90;;;;;;5105384;28;20269;-83
2024/03/17 08:41:16;;;;;;;14.53;5.57;;;8.80;45.90;;;;;;5107907;28;20308;-84
2024/03/17 08:43:44;;;;;;;13.30;4.43;;;8.80;99.90;;;;;;5106847;28;20216;-82
2024/03/17 08:46:13;;;;;;;10.27;4.40;;;8.80;99.90;;;;;;5110987;28;20197;-82
2024/03/17 08:48:41;;;;;;;10.83;4.07;;;8.90;16.50;;;;;;5108508;28;20205;-82
2024/03/17 08:51:09;;;;;;;11.43;4.20;;;8.50;1.00;;;;;;5104002;28;20304;-83
2024/03/17 08:53:37;;;;;;;12.50;4.07;;;8.50;1.00;;;;;;5106107;28;20284;-84
2024/03/17 08:56:06;;;;;;;12.00;4.97;;;8.90;1.00;;;;;;5108468;28;20213;-80
2024/03/17 08:58:33;;;;;;;8.97;4.10;;;8.90;99.90;;;;;;5100379;28;20606;-83
2024/03/17 09:01:04;;;;;;;11.37;4.40;;;8.60;3.30;;;;;;5107878;28;20267;-83
2024/03/17 09:03:31;;;;;;;7.57;3.93;;;8.70;99.90;;;;;;5101789;28;20197;-82
2024/03/17 09:05:58;;;;;;;14.10;4.87;;;8.50;99.90;;;;;;5109877;28;20229;-82
2024/03/17 09:08:27;;;;;;;12.57;4.37;;;8.60;99.90;;;;;;5107840;28;20690;-83
2024/03/17 09:10:55;;;;;;;12.17;4.50;;;8.90;1.00;;;;;;5104754;28;20226;-81
2024/03/17 09:13:24;;;;;;;12.43;4.77;;;9.20;59.00;;;;;;5096984;28;20629;-81
2024/03/17 09:15:52;;;;;;;17.20;4.70;;;9.20;1.00;;;;;;5102854;28;20228;-81
2024/03/17 09:18:20;;;;;;;9.03;4.20;;;9.40;1.00;;;;;;5103421;28;20197;-82
2024/03/17 09:20:56;;;;;;;11.40;5.13;;;9.30;1.00;;;;;;5109645;28;20217;-83
2024/03/17 09:23:24;;;;;;;10.00;4.10;;;9.30;1.00;;;;;;5107835;28;20219;-82
2024/03/17 09:25:56;;;;;;;16.30;4.73;;;9.20;1.00;;;;;;5108822;28;20232;-81
2024/03/17 09:28:23;;;;;;;9.70;4.90;;;9.50;1.00;;;;;;5097995;28;20212;-82
2024/03/17 09:30:52;;;;;;;13.73;5.00;;;9.70;1.00;;;;;;5105502;28;20252;-83
2024/03/17 09:33:20;;;;;;;8.83;3.83;;;9.80;1.00;;;;;;5112495;28;20224;-83
2024/03/17 09:35:54;;;;;;;11.23;5.20;;;9.90;1.00;;;;;;5106038;28;20225;-81
2024/03/17 09:38:22;;;;;;;12.43;4.60;;;10.10;1.00;;;;;;5114260;28;20209;-80
2024/03/17 09:40:52;;;;;;;14.30;5.13;;;10.10;1.00;;;;;;5101981;28;20227;-81
2024/03/17 09:43:20;;;;;;;12.27;4.67;;;10.60;1.00;;;;;;5105867;28;20217;-81
2024/03/17 09:45:47;;;;;;;10.63;4.63;;;10.50;99.90;;;;;;5106243;28;20226;-81
2024/03/17 09:48:17;;;;;;;11.13;4.97;;;10.50;99.90;;;;;;5102398;28;20245;-81
2024/03/17 09:50:52;;;;;;;10.83;4.50;;;10.40;99.90;;;;;;5105133;28;20232;-80
2024/03/17 09:53:24;;;;;;;15.70;5.23;;;10.50;99.90;;;;;;5111810;27;20209;-80
2024/03/17 09:55:51;;;;;;;12.37;4.90;;;10.70;99.90;;;;;;5103817;28;20229;-82
2024/03/17 09:58:19;;;;;;;11.57;4.57;;;10.40;99.90;;;;;;5109355;28;20209;-84
2024/03/17 10:00:46;;;;;;;10.50;4.40;;;10.50;99.90;;;;;;5102350;27;20209;-83
2024/03/17 10:03:13;;;;;;;11.40;4.60;;;10.70;99.90;;;;;;5097871;28;20233;-84
2024/03/17 10:05:40;;;;;;;14.53;4.43;;;10.90;99.90;;;;;;5106091;28;20205;-81
2024/03/17 10:08:22;;;;;;;14.13;4.67;;;10.70;99.90;;;;;;5104443;28;20315;-82
2024/03/17 10:10:54;;;;;;;11.27;5.20;;;11.20;99.90;;;;;;5110512;28;20315;-83
2024/03/17 10:13:21;;;;;;;13.57;5.17;;;11.00;99.90;;;;;;5108275;28;20232;-81
2024/03/17 10:15:50;;;;;;;10.87;5.30;;;11.30;71.20;;;;;;5108875;28;20652;-83
2024/03/17 10:18:22;;;;;;;11.90;5.80;;;11.50;62.10;;;;;;5101061;28;20206;-82
2024/03/17 10:20:52;;;;;;;7.20;4.50;;;11.90;1.00;;;;;;5106525;28;20308;-82
2024/03/17 10:23:21;;;;;;;13.73;5.70;;;11.80;1.00;;;;;;5104721;28;20274;-81
2024/03/17 10:25:48;;;;;;;11.63;5.80;;;11.30;1.00;;;;;;5105570;28;20250;-80
2024/03/17 10:28:16;;;;;;;10.87;5.60;;;11.80;1.00;;;;;;5114039;28;20208;-80
2024/03/17 10:30:57;;;;;;;10.10;5.40;;;11.30;1.00;;;;;;5102465;28;20201;-81
2024/03/17 10:33:26;;;;;;;13.40;4.90;;;12.00;1.00;;;;;;5100432;28;20252;-81
2024/03/17 10:36:00;;;;;;;13.00;5.10;;;12.70;1.00;;;;;;5104303;28;20308;-82
2024/03/17 10:38:29;;;;;;;8.50;4.80;;;11.80;1.00;;;;;;5109141;28;20226;-81
2024/03/17 10:40:56;;;;;;;11.47;5.17;;;11.60;1.00;;;;;;5103644;28;20309;-81
2024/03/17 10:43:25;;;;;;;9.33;4.50;;;12.30;1.00;;;;;;5105151;28;20209;-80
2024/03/17 10:45:54;;;;;;;7.53;4.57;;;11.60;1.00;;;;;;5103943;28;20209;-81
2024/03/17 10:48:23;;;;;;;13.20;5.43;;;11.60;1.00;;;;;;5105383;28;20254;-81
2024/03/17 10:50:53;;;;;;;12.13;5.13;;;11.70;1.00;;;;;;5105376;28;20228;-82
2024/03/17 10:53:26;;;;;;;10.87;4.90;;;11.60;1.00;;;;;;5109456;28;20225;-82
2024/03/17 10:56:05;;;;;;;11.73;5.87;;;11.60;1.00;;;;;;5101625;28;20206;-82
2024/03/17 10:58:36;;;;;;;13.63;5.10;;;12.30;1.00;;;;;;5108429;28;20207;-81
2024/03/17 11:01:04;;;;;;;12.27;5.30;;;12.50;1.00;;;;;;5108610;28;20332;-82
2024/03/17 11:03:33;;;;;;;9.13;5.33;;;13.00;1.00;;;;;;5111891;28;20602;-83
2024/03/17 11:06:03;;;;;;;9.87;5.17;;;11.90;1.00;;;;;;5114104;28;20197;-80
2024/03/17 11:08:32;;;;;;;10.63;4.90;;;11.70;1.00;;;;;;5102198;28;20266;-82
2024/03/17 11:11:01;;;;;;;10.97;5.00;;;11.90;1.00;;;;;;5110675;28;20229;-82
2024/03/17 11:13:29;;;;;;;10.07;4.93;;;12.50;1.00;;;;;;5116121;28;20213;-81
2024/03/17 11:15:58;;;;;;;12.80;5.70;;;12.00;1.00;;;;;;5114579;28;20212;-81
2024/03/17 11:18:46;;;;;;;10.87;5.77;;;11.80;1.00;;;;;;5109435;28;20197;-81
2024/03/17 11:21:21;;;;;;;13.20;6.00;;;11.70;1.00;;;;;;5105163;28;20634;-80
2024/03/17 11:23:58;;;;;;;11.63;5.87;;;11.50;1.00;;;;;;5111397;28;20192;-81
2024/03/17 11:26:31;;;;;;;13.33;5.53;;;11.70;1.00;;;;;;5110043;28;20299;-82
2024/03/17 11:29:00;;;;;;;12.03;5.80;;;12.40;1.00;;;;;;5102641;28;20198;-82
2024/03/17 11:31:52;;;;;;;12.87;6.17;;;12.40;1.00;;;;;;5109245;28;20267;-82
2024/03/17 11:34:34;;;;;;;12.37;5.97;;;12.70;1.00;;;;;;5103869;28;20280;-80
2024/03/17 11:37:01;;;;;;;11.63;5.73;;;13.30;1.00;;;;;;5101629;28;20201;-82
2024/03/17 11:39:49;;;;;;;10.57;5.20;;;12.90;1.00;;;;;;5110533;28;20341;-81
2024/03/17 11:42:16;;;;;;;15.07;6.13;;;11.80;1.00;;;;;;5108634;28;20220;-80
2024/03/17 11:44:45;;;;;;;12.03;5.90;;;11.50;1.00;;;;;;5107795;28;20710;-82
2024/03/17 11:47:11;;;;;;;9.97;5.53;;;11.20;1.00;;;;;;5103449;28;20206;-80
2024/03/17 11:49:39;;;;;;;10.60;5.70;;;11.10;1.00;;;;;;5110920;28;20197;-82
2024/03/17 11:52:11;;;;;;;10.33;5.93;;;10.90;1.00;;;;;;5111762;28;20228;-82
2024/03/17 11:54:39;;;;;;;10.30;5.30;;;11.00;1.00;;;;;;5104213;28;20251;-82
2024/03/17 11:57:07;;;;;;;10.87;6.00;;;11.10;1.00;;;;;;5105256;28;20201;-81
2024/03/17 11:59:37;;;;;;;9.97;5.73;;;11.40;1.00;;;;;;5105549;28;20691;-82
2024/03/17 12:02:09;;;;;;;12.77;5.97;;;11.40;1.00;;;;;;5107202;28;20225;-81
2024/03/17 12:04:40;;;;;;;12.90;6.67;;;12.40;1.00;;;;;;5108108;28;20188;-81
2024/03/17 12:07:13;;;;;;;10.57;5.83;;;12.20;1.00;;;;;;5106445;28;20209;-81
2024/03/17 12:09:41;;;;;;;10.10;5.50;;;12.40;1.00;;;;;;5103097;28;20208;-81
2024/03/17 12:12:10;;;;;;;9.17;6.10;;;12.10;1.00;;;;;;5113107;28;20274;-80
2024/03/17 12:14:39;;;;;;;11.17;5.53;;;12.10;1.00;;;;;;5114098;28;20193;-81
2024/03/17 12:17:07;;;;;;;11.80;6.80;;;12.20;1.00;;;;;;5108254;28;20235;-81
2024/03/17 12:19:34;;;;;;;12.57;6.20;;;12.60;1.00;;;;;;5110403;28;20208;-79
2024/03/17 12:22:02;;;;;;;9.97;6.00;;;13.00;1.00;;;;;;5098364;28;20253;-81
2024/03/17 12:24:30;;;;;;;12.70;6.43;;;12.20;1.00;;;;;;5113530;28;20197;-82
2024/03/17 12:26:59;;;;;;;10.67;6.10;;;12.00;1.00;;;;;;5113438;28;20229;-82
2024/03/17 12:29:29;;;;;;;10.63;6.37;;;12.00;1.00;;;;;;5111776;28;20203;-82
2024/03/17 12:31:59;;;;;;;14.13;6.33;;;12.40;1.00;;;;;;5104781;28;20229;-82
2024/03/17 12:34:27;;;;;;;16.03;6.17;;;12.80;1.00;;;;;;5103863;28;20251;-83
2024/03/17 12:36:54;;;;;;;10.50;5.93;;;13.10;1.00;;;;;;5102954;28;20202;-81
2024/03/17 12:39:23;;;;;;;10.30;6.20;;;12.40;1.00;;;;;;5104955;28;20226;-81
2024/03/17 12:42:03;;;;;;;13.17;5.80;;;12.50;1.00;;;;;;5109017;28;20240;-81
2024/03/17 12:44:30;;;;;;;12.83;6.13;;;12.70;1.00;;;;;;5109011;28;20196;-82
2024/03/17 12:47:00;;;;;;;10.50;6.43;;;12.60;1.00;;;;;;5108609;28;20226;-83
2024/03/17 12:49:27;;;;;;;10.20;5.80;;;12.80;1.00;;;;;;5109541;28;20210;-82
2024/03/17 12:51:54;;;;;;;12.23;6.07;;;12.90;1.00;;;;;;5106160;28;20256;-79
2024/03/17 12:54:24;;;;;;;11.33;6.03;;;12.50;1.00;;;;;;5109900;28;20256;-81
2024/03/17 13:02:27;;;;;;;10.73;6.37;;;12.70;1.00;;;;;;5107042;28;20224;-80
2024/03/17 13:05:09;;;;;;;10.25;5.90;;;13.20;1.00;;;;;;5110440;28;20201;-81
2024/03/17 13:07:36;;;;;;;10.40;6.10;;;12.80;1.00;;;;;;5106618;28;20645;-80
2024/03/17 13:10:04;;;;;;;11.57;6.37;;;12.40;1.00;;;;;;5113645;28;20204;-80